Disclaimer

Please do not use the information listed here in-flight or in-navigation, as they are not provided to us by the airports but are provided by volunteers, so they might be outdated.

Search


Regions


Airport information page

Radio informations:
Tower (TWR) - 118.3 MHz
OPS - 122.5 MHz
Ground (GND) - 121.9 MHz
Automatic Terminal Information Service (ATIS) - 127.65 MHz

Airport informations:
Latitude: 03° 02' 19.00" S
Longitude: 060° 02' 59.00" W
Elevation: 264 feet - 80 meters
Operating hours: 24 hour operations
Operating agency: Civil government, landing fees and diplomatic clearance may be required
Timezone: UTC-4(-3DT)
Fuel: Jet A1, without icing nhibitor.

100/130 octane gasoline, leaded, MIL-L-5572F (GREEN)

Runway information:
10/28 - 8858 x 148 feet< - >2700 x 45 meters

Recent METARs:
SBEG 211615Z 15003KT 9999 BKN015 28/24 Q1012
SBEG 211700Z 33009KT 9999 SCT015 SCT020 FEW025TCU 26/23 Q1011
SBEG 211700Z 33009KT 9999 SCT015 SCT020 FEW025TCU 26/23 Q1011

Airport on the map: